sensor_id;sensor_type;location;lat;lon;timestamp;P1;durP1;ratioP1;P2;durP2;ratioP2
19163;SDS011;9714;51.208;4.242;2022-12-18T00:01:21;102.03;;;42.07;;
19163;SDS011;9714;51.208;4.242;2022-12-18T00:03:52;97.00;;;39.27;;
19163;SDS011;9714;51.208;4.242;2022-12-18T00:06:20;100.80;;;37.73;;
19163;SDS011;9714;51.208;4.242;2022-12-18T00:08:50;91.73;;;39.17;;
19163;SDS011;9714;51.208;4.242;2022-12-18T00:11:18;101.67;;;40.23;;
19163;SDS011;9714;51.208;4.242;2022-12-18T00:13:47;94.93;;;39.47;;
19163;SDS011;9714;51.208;4.242;2022-12-18T00:16:16;108.40;;;40.43;;
19163;SDS011;9714;51.208;4.242;2022-12-18T00:18:45;94.87;;;37.97;;
19163;SDS011;9714;51.208;4.242;2022-12-18T00:21:17;102.10;;;37.40;;
19163;SDS011;9714;51.208;4.242;2022-12-18T00:23:46;91.10;;;35.33;;
19163;SDS011;9714;51.208;4.242;2022-12-18T00:26:15;90.20;;;33.43;;
19163;SDS011;9714;51.208;4.242;2022-12-18T00:28:43;88.00;;;35.23;;
19163;SDS011;9714;51.208;4.242;2022-12-18T00:31:12;77.20;;;30.80;;
19163;SDS011;9714;51.208;4.242;2022-12-18T00:33:42;83.80;;;31.83;;
19163;SDS011;9714;51.208;4.242;2022-12-18T00:36:10;88.57;;;31.63;;
19163;SDS011;9714;51.208;4.242;2022-12-18T00:38:41;89.30;;;31.17;;
19163;SDS011;9714;51.208;4.242;2022-12-18T00:41:09;76.90;;;30.27;;
19163;SDS011;9714;51.208;4.242;2022-12-18T00:43:38;80.40;;;29.87;;
19163;SDS011;9714;51.208;4.242;2022-12-18T00:46:05;87.77;;;32.10;;
19163;SDS011;9714;51.208;4.242;2022-12-18T00:48:38;82.63;;;31.87;;
19163;SDS011;9714;51.208;4.242;2022-12-18T00:51:06;90.93;;;33.67;;
19163;SDS011;9714;51.208;4.242;2022-12-18T00:53:34;86.57;;;31.27;;
19163;SDS011;9714;51.208;4.242;2022-12-18T00:56:02;93.53;;;33.73;;
19163;SDS011;9714;51.208;4.242;2022-12-18T00:58:29;80.47;;;33.47;;
19163;SDS011;9714;51.208;4.242;2022-12-18T01:00:58;90.93;;;35.63;;
19163;SDS011;9714;51.208;4.242;2022-12-18T01:03:26;89.97;;;35.50;;
19163;SDS011;9714;51.208;4.242;2022-12-18T01:05:53;82.57;;;32.53;;
19163;SDS011;9714;51.208;4.242;2022-12-18T01:08:20;93.10;;;32.43;;
19163;SDS011;9714;51.208;4.242;2022-12-18T01:10:48;97.00;;;34.17;;
19163;SDS011;9714;51.208;4.242;2022-12-18T01:13:16;91.27;;;32.57;;
19163;SDS011;9714;51.208;4.242;2022-12-18T01:15:47;98.87;;;33.77;;
19163;SDS011;9714;51.208;4.242;2022-12-18T01:18:15;90.47;;;34.63;;
19163;SDS011;9714;51.208;4.242;2022-12-18T01:20:42;95.67;;;32.77;;
19163;SDS011;9714;51.208;4.242;2022-12-18T01:23:11;99.30;;;34.63;;
19163;SDS011;9714;51.208;4.242;2022-12-18T01:25:40;90.93;;;33.07;;
19163;SDS011;9714;51.208;4.242;2022-12-18T01:28:07;83.83;;;31.17;;
19163;SDS011;9714;51.208;4.242;2022-12-18T01:30:37;95.30;;;32.83;;
19163;SDS011;9714;51.208;4.242;2022-12-18T01:33:04;97.30;;;33.40;;
19163;SDS011;9714;51.208;4.242;2022-12-18T01:35:31;89.70;;;32.93;;
19163;SDS011;9714;51.208;4.242;2022-12-18T01:38:01;81.40;;;31.83;;
19163;SDS011;9714;51.208;4.242;2022-12-18T01:40:28;99.10;;;33.57;;
19163;SDS011;9714;51.208;4.242;2022-12-18T01:42:55;95.53;;;33.20;;
19163;SDS011;9714;51.208;4.242;2022-12-18T01:45:24;90.43;;;33.57;;
19163;SDS011;9714;51.208;4.242;2022-12-18T01:48:01;99.53;;;34.93;;
19163;SDS011;9714;51.208;4.242;2022-12-18T01:50:30;86.00;;;33.20;;
19163;SDS011;9714;51.208;4.242;2022-12-18T01:53:02;92.67;;;33.77;;
19163;SDS011;9714;51.208;4.242;2022-12-18T01:55:35;88.60;;;33.47;;
19163;SDS011;9714;51.208;4.242;2022-12-18T01:58:04;89.97;;;34.67;;
19163;SDS011;9714;51.208;4.242;2022-12-18T02:00:32;88.43;;;32.93;;
19163;SDS011;9714;51.208;4.242;2022-12-18T02:03:00;95.50;;;32.50;;
19163;SDS011;9714;51.208;4.242;2022-12-18T02:05:31;91.50;;;32.97;;
19163;SDS011;9714;51.208;4.242;2022-12-18T02:08:07;95.23;;;33.40;;
19163;SDS011;9714;51.208;4.242;2022-12-18T02:10:39;83.23;;;32.30;;
19163;SDS011;9714;51.208;4.242;2022-12-18T02:13:14;87.17;;;33.40;;
19163;SDS011;9714;51.208;4.242;2022-12-18T02:15:51;81.87;;;32.17;;
19163;SDS011;9714;51.208;4.242;2022-12-18T02:18:27;92.17;;;32.20;;
19163;SDS011;9714;51.208;4.242;2022-12-18T02:20:59;88.00;;;32.63;;
19163;SDS011;9714;51.208;4.242;2022-12-18T02:23:41;87.37;;;31.47;;
19163;SDS011;9714;51.208;4.242;2022-12-18T02:26:19;85.43;;;32.07;;
19163;SDS011;9714;51.208;4.242;2022-12-18T02:28:54;81.13;;;32.70;;
19163;SDS011;9714;51.208;4.242;2022-12-18T02:31:26;81.93;;;30.97;;
19163;SDS011;9714;51.208;4.242;2022-12-18T02:34:02;77.70;;;30.67;;
19163;SDS011;9714;51.208;4.242;2022-12-18T02:36:32;79.10;;;31.00;;
19163;SDS011;9714;51.208;4.242;2022-12-18T02:39:04;73.83;;;30.07;;
19163;SDS011;9714;51.208;4.242;2022-12-18T02:41:36;82.00;;;32.37;;
19163;SDS011;9714;51.208;4.242;2022-12-18T02:44:06;83.63;;;29.63;;
19163;SDS011;9714;51.208;4.242;2022-12-18T02:46:36;71.83;;;28.80;;
19163;SDS011;9714;51.208;4.242;2022-12-18T02:49:12;78.07;;;30.23;;
19163;SDS011;9714;51.208;4.242;2022-12-18T02:51:55;82.20;;;30.33;;
19163;SDS011;9714;51.208;4.242;2022-12-18T02:54:36;79.23;;;30.47;;
19163;SDS011;9714;51.208;4.242;2022-12-18T02:57:16;77.73;;;29.73;;
19163;SDS011;9714;51.208;4.242;2022-12-18T02:59:55;80.20;;;29.93;;
19163;SDS011;9714;51.208;4.242;2022-12-18T03:02:30;70.23;;;27.40;;
19163;SDS011;9714;51.208;4.242;2022-12-18T03:05:05;73.13;;;27.87;;
19163;SDS011;9714;51.208;4.242;2022-12-18T03:07:41;82.40;;;30.73;;
19163;SDS011;9714;51.208;4.242;2022-12-18T03:10:12;74.13;;;27.83;;
19163;SDS011;9714;51.208;4.242;2022-12-18T03:12:45;74.20;;;25.97;;
19163;SDS011;9714;51.208;4.242;2022-12-18T03:15:18;75.97;;;29.27;;
19163;SDS011;9714;51.208;4.242;2022-12-18T03:17:54;81.30;;;29.00;;
19163;SDS011;9714;51.208;4.242;2022-12-18T03:20:25;75.87;;;27.13;;
19163;SDS011;9714;51.208;4.242;2022-12-18T03:22:57;75.53;;;26.97;;
19163;SDS011;9714;51.208;4.242;2022-12-18T03:25:31;63.60;;;26.57;;
19163;SDS011;9714;51.208;4.242;2022-12-18T03:28:02;64.53;;;25.10;;
19163;SDS011;9714;51.208;4.242;2022-12-18T03:30:35;70.47;;;25.00;;
19163;SDS011;9714;51.208;4.242;2022-12-18T03:33:05;69.67;;;27.00;;
19163;SDS011;9714;51.208;4.242;2022-12-18T03:35:37;63.30;;;24.60;;
19163;SDS011;9714;51.208;4.242;2022-12-18T03:38:07;52.10;;;22.73;;
19163;SDS011;9714;51.208;4.242;2022-12-18T03:40:35;58.10;;;23.57;;
19163;SDS011;9714;51.208;4.242;2022-12-18T03:43:14;64.17;;;25.80;;
19163;SDS011;9714;51.208;4.242;2022-12-18T03:45:48;65.87;;;24.20;;
19163;SDS011;9714;51.208;4.242;2022-12-18T03:48:19;61.23;;;24.77;;
19163;SDS011;9714;51.208;4.242;2022-12-18T03:50:55;58.17;;;22.10;;
19163;SDS011;9714;51.208;4.242;2022-12-18T03:53:28;56.80;;;22.93;;
19163;SDS011;9714;51.208;4.242;2022-12-18T03:56:03;56.23;;;22.10;;
19163;SDS011;9714;51.208;4.242;2022-12-18T03:58:34;54.47;;;22.53;;
19163;SDS011;9714;51.208;4.242;2022-12-18T04:01:04;58.53;;;22.80;;
19163;SDS011;9714;51.208;4.242;2022-12-18T04:03:33;63.60;;;23.80;;
19163;SDS011;9714;51.208;4.242;2022-12-18T04:06:02;59.93;;;22.10;;
19163;SDS011;9714;51.208;4.242;2022-12-18T04:08:31;57.33;;;23.00;;
19163;SDS011;9714;51.208;4.242;2022-12-18T04:11:00;59.97;;;22.87;;
19163;SDS011;9714;51.208;4.242;2022-12-18T04:13:29;53.33;;;23.27;;
19163;SDS011;9714;51.208;4.242;2022-12-18T04:16:01;54.07;;;22.17;;
19163;SDS011;9714;51.208;4.242;2022-12-18T04:18:28;56.40;;;22.97;;
19163;SDS011;9714;51.208;4.242;2022-12-18T04:20:56;59.07;;;22.20;;
19163;SDS011;9714;51.208;4.242;2022-12-18T04:23:23;54.50;;;21.70;;
19163;SDS011;9714;51.208;4.242;2022-12-18T04:25:50;48.43;;;20.23;;
19163;SDS011;9714;51.208;4.242;2022-12-18T04:28:18;48.97;;;20.40;;
19163;SDS011;9714;51.208;4.242;2022-12-18T04:30:45;54.63;;;20.07;;
19163;SDS011;9714;51.208;4.242;2022-12-18T04:33:17;48.80;;;19.83;;
19163;SDS011;9714;51.208;4.242;2022-12-18T04:35:45;53.07;;;21.07;;
19163;SDS011;9714;51.208;4.242;2022-12-18T04:38:12;53.57;;;21.97;;
19163;SDS011;9714;51.208;4.242;2022-12-18T04:40:39;42.27;;;19.13;;
19163;SDS011;9714;51.208;4.242;2022-12-18T04:43:06;50.33;;;19.97;;
19163;SDS011;9714;51.208;4.242;2022-12-18T04:45:33;46.13;;;20.47;;
19163;SDS011;9714;51.208;4.242;2022-12-18T04:48:07;50.00;;;20.10;;
19163;SDS011;9714;51.208;4.242;2022-12-18T04:50:37;54.63;;;21.93;;
19163;SDS011;9714;51.208;4.242;2022-12-18T04:53:05;49.67;;;20.90;;
19163;SDS011;9714;51.208;4.242;2022-12-18T04:55:32;54.90;;;21.60;;
19163;SDS011;9714;51.208;4.242;2022-12-18T04:57:59;52.87;;;19.83;;
19163;SDS011;9714;51.208;4.242;2022-12-18T05:00:30;50.93;;;20.60;;
19163;SDS011;9714;51.208;4.242;2022-12-18T05:02:57;48.00;;;21.47;;
19163;SDS011;9714;51.208;4.242;2022-12-18T05:05:26;56.67;;;20.53;;
19163;SDS011;9714;51.208;4.242;2022-12-18T05:07:55;55.53;;;20.57;;
19163;SDS011;9714;51.208;4.242;2022-12-18T05:10:22;52.20;;;19.17;;
19163;SDS011;9714;51.208;4.242;2022-12-18T05:12:49;48.47;;;20.60;;
19163;SDS011;9714;51.208;4.242;2022-12-18T05:15:26;65.43;;;23.83;;
19163;SDS011;9714;51.208;4.242;2022-12-18T05:17:54;53.27;;;21.07;;
19163;SDS011;9714;51.208;4.242;2022-12-18T05:20:28;48.97;;;20.87;;
19163;SDS011;9714;51.208;4.242;2022-12-18T05:22:56;56.20;;;19.30;;
19163;SDS011;9714;51.208;4.242;2022-12-18T05:25:25;44.97;;;18.77;;
19163;SDS011;9714;51.208;4.242;2022-12-18T05:27:53;50.17;;;19.43;;
19163;SDS011;9714;51.208;4.242;2022-12-18T05:30:21;44.00;;;18.70;;
19163;SDS011;9714;51.208;4.242;2022-12-18T05:32:48;41.90;;;17.93;;
19163;SDS011;9714;51.208;4.242;2022-12-18T05:35:17;45.83;;;18.43;;
19163;SDS011;9714;51.208;4.242;2022-12-18T05:37:47;46.47;;;19.80;;
19163;SDS011;9714;51.208;4.242;2022-12-18T05:40:15;52.23;;;20.17;;
19163;SDS011;9714;51.208;4.242;2022-12-18T05:42:43;60.77;;;21.63;;
19163;SDS011;9714;51.208;4.242;2022-12-18T05:45:11;48.87;;;20.87;;
19163;SDS011;9714;51.208;4.242;2022-12-18T05:47:39;49.30;;;20.97;;
19163;SDS011;9714;51.208;4.242;2022-12-18T05:50:08;46.03;;;18.60;;
19163;SDS011;9714;51.208;4.242;2022-12-18T05:52:35;44.40;;;18.57;;
19163;SDS011;9714;51.208;4.242;2022-12-18T05:55:02;45.17;;;19.57;;
19163;SDS011;9714;51.208;4.242;2022-12-18T05:57:32;44.00;;;18.63;;
19163;SDS011;9714;51.208;4.242;2022-12-18T05:59:59;42.33;;;16.77;;
19163;SDS011;9714;51.208;4.242;2022-12-18T06:02:27;41.27;;;17.77;;
19163;SDS011;9714;51.208;4.242;2022-12-18T06:04:56;42.97;;;17.80;;
19163;SDS011;9714;51.208;4.242;2022-12-18T06:07:23;42.43;;;17.33;;
19163;SDS011;9714;51.208;4.242;2022-12-18T06:09:50;43.50;;;18.30;;
19163;SDS011;9714;51.208;4.242;2022-12-18T06:12:17;44.20;;;18.23;;
19163;SDS011;9714;51.208;4.242;2022-12-18T06:14:46;41.30;;;19.17;;
19163;SDS011;9714;51.208;4.242;2022-12-18T06:17:14;43.93;;;18.67;;
19163;SDS011;9714;51.208;4.242;2022-12-18T06:19:41;46.33;;;18.57;;
19163;SDS011;9714;51.208;4.242;2022-12-18T06:22:09;43.80;;;18.60;;
19163;SDS011;9714;51.208;4.242;2022-12-18T06:24:37;49.87;;;20.47;;
19163;SDS011;9714;51.208;4.242;2022-12-18T06:27:05;65.80;;;25.80;;
19163;SDS011;9714;51.208;4.242;2022-12-18T06:29:32;62.20;;;27.43;;
19163;SDS011;9714;51.208;4.242;2022-12-18T06:32:00;50.00;;;21.17;;
19163;SDS011;9714;51.208;4.242;2022-12-18T06:34:28;44.50;;;19.80;;
19163;SDS011;9714;51.208;4.242;2022-12-18T06:36:56;43.50;;;18.43;;
19163;SDS011;9714;51.208;4.242;2022-12-18T06:39:24;45.10;;;19.17;;
19163;SDS011;9714;51.208;4.242;2022-12-18T06:41:53;40.40;;;17.77;;
19163;SDS011;9714;51.208;4.242;2022-12-18T06:44:21;46.27;;;17.47;;
19163;SDS011;9714;51.208;4.242;2022-12-18T06:46:48;39.60;;;17.03;;
19163;SDS011;9714;51.208;4.242;2022-12-18T06:49:18;37.50;;;15.83;;
19163;SDS011;9714;51.208;4.242;2022-12-18T06:51:46;38.37;;;17.77;;
19163;SDS011;9714;51.208;4.242;2022-12-18T06:54:13;38.30;;;16.17;;
19163;SDS011;9714;51.208;4.242;2022-12-18T06:56:41;41.83;;;17.27;;
19163;SDS011;9714;51.208;4.242;2022-12-18T06:59:09;45.40;;;18.27;;
19163;SDS011;9714;51.208;4.242;2022-12-18T07:01:37;48.70;;;19.87;;
19163;SDS011;9714;51.208;4.242;2022-12-18T07:04:04;44.73;;;16.63;;
19163;SDS011;9714;51.208;4.242;2022-12-18T07:06:33;43.23;;;18.03;;
19163;SDS011;9714;51.208;4.242;2022-12-18T07:09:00;45.03;;;17.93;;
19163;SDS011;9714;51.208;4.242;2022-12-18T07:11:27;47.97;;;18.10;;
19163;SDS011;9714;51.208;4.242;2022-12-18T07:13:56;46.17;;;17.17;;
19163;SDS011;9714;51.208;4.242;2022-12-18T07:16:24;39.80;;;17.00;;
19163;SDS011;9714;51.208;4.242;2022-12-18T07:18:54;42.27;;;17.37;;
19163;SDS011;9714;51.208;4.242;2022-12-18T07:21:23;48.83;;;18.27;;
19163;SDS011;9714;51.208;4.242;2022-12-18T07:23:54;45.37;;;17.17;;
19163;SDS011;9714;51.208;4.242;2022-12-18T07:26:24;44.60;;;19.33;;
19163;SDS011;9714;51.208;4.242;2022-12-18T07:28:54;38.47;;;16.13;;
19163;SDS011;9714;51.208;4.242;2022-12-18T07:31:22;42.33;;;17.23;;
19163;SDS011;9714;51.208;4.242;2022-12-18T07:33:51;36.60;;;16.20;;
19163;SDS011;9714;51.208;4.242;2022-12-18T07:36:19;36.53;;;16.47;;
19163;SDS011;9714;51.208;4.242;2022-12-18T07:38:50;41.17;;;16.27;;
19163;SDS011;9714;51.208;4.242;2022-12-18T07:41:25;39.03;;;16.37;;
19163;SDS011;9714;51.208;4.242;2022-12-18T07:46:23;35.20;;;14.53;;
19163;SDS011;9714;51.208;4.242;2022-12-18T07:48:50;35.73;;;15.83;;
19163;SDS011;9714;51.208;4.242;2022-12-18T07:51:18;60.63;;;23.97;;
19163;SDS011;9714;51.208;4.242;2022-12-18T07:53:46;45.83;;;21.80;;
19163;SDS011;9714;51.208;4.242;2022-12-18T07:56:17;42.97;;;21.53;;
19163;SDS011;9714;51.208;4.242;2022-12-18T07:58:46;42.90;;;22.33;;
19163;SDS011;9714;51.208;4.242;2022-12-18T08:01:14;41.30;;;17.40;;
19163;SDS011;9714;51.208;4.242;2022-12-18T08:03:43;38.73;;;17.80;;
19163;SDS011;9714;51.208;4.242;2022-12-18T08:06:10;36.30;;;15.90;;
19163;SDS011;9714;51.208;4.242;2022-12-18T08:08:39;32.27;;;16.63;;
19163;SDS011;9714;51.208;4.242;2022-12-18T08:11:09;34.30;;;15.03;;
19163;SDS011;9714;51.208;4.242;2022-12-18T08:13:37;29.13;;;13.57;;
19163;SDS011;9714;51.208;4.242;2022-12-18T08:16:06;31.83;;;13.67;;
19163;SDS011;9714;51.208;4.242;2022-12-18T08:18:34;30.67;;;13.20;;
19163;SDS011;9714;51.208;4.242;2022-12-18T08:21:07;32.23;;;13.87;;
19163;SDS011;9714;51.208;4.242;2022-12-18T08:23:36;30.57;;;13.70;;
19163;SDS011;9714;51.208;4.242;2022-12-18T08:26:06;28.07;;;12.50;;
19163;SDS011;9714;51.208;4.242;2022-12-18T08:28:33;28.33;;;12.47;;
19163;SDS011;9714;51.208;4.242;2022-12-18T08:31:02;31.13;;;12.93;;
19163;SDS011;9714;51.208;4.242;2022-12-18T08:33:30;26.33;;;13.07;;
19163;SDS011;9714;51.208;4.242;2022-12-18T08:35:58;30.07;;;12.50;;
19163;SDS011;9714;51.208;4.242;2022-12-18T08:38:26;27.83;;;12.60;;
19163;SDS011;9714;51.208;4.242;2022-12-18T08:40:57;33.63;;;13.83;;
19163;SDS011;9714;51.208;4.242;2022-12-18T08:43:25;30.43;;;13.80;;
19163;SDS011;9714;51.208;4.242;2022-12-18T08:46:10;25.80;;;11.90;;
19163;SDS011;9714;51.208;4.242;2022-12-18T08:48:42;28.93;;;12.57;;
19163;SDS011;9714;51.208;4.242;2022-12-18T08:51:12;24.00;;;11.37;;
19163;SDS011;9714;51.208;4.242;2022-12-18T08:53:40;24.60;;;11.00;;
19163;SDS011;9714;51.208;4.242;2022-12-18T08:56:08;29.90;;;13.43;;
19163;SDS011;9714;51.208;4.242;2022-12-18T08:58:37;31.13;;;11.50;;
19163;SDS011;9714;51.208;4.242;2022-12-18T09:01:05;22.37;;;10.13;;
19163;SDS011;9714;51.208;4.242;2022-12-18T09:03:35;30.30;;;15.63;;
19163;SDS011;9714;51.208;4.242;2022-12-18T09:06:05;30.23;;;12.07;;
19163;SDS011;9714;51.208;4.242;2022-12-18T09:08:39;25.60;;;11.50;;
19163;SDS011;9714;51.208;4.242;2022-12-18T09:16:11;25.40;;;11.27;;
19163;SDS011;9714;51.208;4.242;2022-12-18T09:18:39;25.20;;;11.07;;
19163;SDS011;9714;51.208;4.242;2022-12-18T09:21:10;25.43;;;11.30;;
19163;SDS011;9714;51.208;4.242;2022-12-18T09:23:39;25.37;;;11.57;;
19163;SDS011;9714;51.208;4.242;2022-12-18T09:26:07;25.33;;;10.47;;
19163;SDS011;9714;51.208;4.242;2022-12-18T09:28:35;24.30;;;10.50;;
19163;SDS011;9714;51.208;4.242;2022-12-18T09:31:08;23.60;;;10.20;;
19163;SDS011;9714;51.208;4.242;2022-12-18T09:33:37;23.50;;;10.30;;
19163;SDS011;9714;51.208;4.242;2022-12-18T09:36:05;24.20;;;9.83;;
19163;SDS011;9714;51.208;4.242;2022-12-18T09:38:35;25.37;;;11.17;;
19163;SDS011;9714;51.208;4.242;2022-12-18T09:41:04;26.47;;;10.83;;
19163;SDS011;9714;51.208;4.242;2022-12-18T09:43:35;23.80;;;9.47;;
19163;SDS011;9714;51.208;4.242;2022-12-18T09:46:09;22.60;;;9.83;;
19163;SDS011;9714;51.208;4.242;2022-12-18T09:48:42;27.57;;;10.63;;
19163;SDS011;9714;51.208;4.242;2022-12-18T09:51:14;25.60;;;11.63;;
19163;SDS011;9714;51.208;4.242;2022-12-18T09:53:47;22.67;;;8.80;;
19163;SDS011;9714;51.208;4.242;2022-12-18T09:56:19;24.93;;;9.47;;
19163;SDS011;9714;51.208;4.242;2022-12-18T09:58:49;21.97;;;9.77;;
19163;SDS011;9714;51.208;4.242;2022-12-18T10:01:24;25.10;;;10.30;;
19163;SDS011;9714;51.208;4.242;2022-12-18T10:03:53;25.80;;;11.83;;
19163;SDS011;9714;51.208;4.242;2022-12-18T10:06:22;26.53;;;11.13;;
19163;SDS011;9714;51.208;4.242;2022-12-18T10:08:56;26.07;;;10.57;;
19163;SDS011;9714;51.208;4.242;2022-12-18T10:11:38;25.40;;;9.67;;
19163;SDS011;9714;51.208;4.242;2022-12-18T10:14:13;23.13;;;9.57;;
19163;SDS011;9714;51.208;4.242;2022-12-18T10:16:52;21.07;;;9.63;;
19163;SDS011;9714;51.208;4.242;2022-12-18T10:19:36;24.27;;;10.63;;
19163;SDS011;9714;51.208;4.242;2022-12-18T10:22:17;27.77;;;11.17;;
19163;SDS011;9714;51.208;4.242;2022-12-18T10:24:55;23.17;;;9.57;;
19163;SDS011;9714;51.208;4.242;2022-12-18T10:27:29;24.23;;;10.53;;
19163;SDS011;9714;51.208;4.242;2022-12-18T10:29:58;21.53;;;9.03;;
19163;SDS011;9714;51.208;4.242;2022-12-18T10:32:27;22.93;;;9.80;;
19163;SDS011;9714;51.208;4.242;2022-12-18T10:34:57;19.27;;;9.10;;
19163;SDS011;9714;51.208;4.242;2022-12-18T10:37:27;24.57;;;10.87;;
19163;SDS011;9714;51.208;4.242;2022-12-18T10:42:44;21.23;;;9.90;;
19163;SDS011;9714;51.208;4.242;2022-12-18T10:45:13;22.50;;;9.47;;
19163;SDS011;9714;51.208;4.242;2022-12-18T10:47:45;19.97;;;9.53;;
19163;SDS011;9714;51.208;4.242;2022-12-18T10:50:18;27.93;;;14.17;;
19163;SDS011;9714;51.208;4.242;2022-12-18T10:52:55;25.53;;;11.93;;
19163;SDS011;9714;51.208;4.242;2022-12-18T10:55:26;25.23;;;11.83;;
19163;SDS011;9714;51.208;4.242;2022-12-18T11:00:43;26.07;;;12.67;;
19163;SDS011;9714;51.208;4.242;2022-12-18T11:06:01;23.67;;;10.33;;
19163;SDS011;9714;51.208;4.242;2022-12-18T11:08:30;22.20;;;9.80;;
19163;SDS011;9714;51.208;4.242;2022-12-18T11:11:00;24.70;;;11.70;;
19163;SDS011;9714;51.208;4.242;2022-12-18T11:13:30;24.27;;;11.17;;
19163;SDS011;9714;51.208;4.242;2022-12-18T11:15:58;27.03;;;12.03;;
19163;SDS011;9714;51.208;4.242;2022-12-18T11:18:27;24.37;;;12.57;;
19163;SDS011;9714;51.208;4.242;2022-12-18T11:20:58;29.30;;;13.50;;
19163;SDS011;9714;51.208;4.242;2022-12-18T11:23:32;24.87;;;11.40;;
19163;SDS011;9714;51.208;4.242;2022-12-18T11:26:03;24.47;;;11.97;;
19163;SDS011;9714;51.208;4.242;2022-12-18T11:28:37;29.43;;;11.93;;
19163;SDS011;9714;51.208;4.242;2022-12-18T11:31:12;27.87;;;12.27;;
19163;SDS011;9714;51.208;4.242;2022-12-18T11:33:44;26.20;;;12.30;;
19163;SDS011;9714;51.208;4.242;2022-12-18T11:36:17;22.90;;;10.73;;
19163;SDS011;9714;51.208;4.242;2022-12-18T11:38:47;25.27;;;12.17;;
19163;SDS011;9714;51.208;4.242;2022-12-18T11:41:21;25.03;;;11.70;;
19163;SDS011;9714;51.208;4.242;2022-12-18T11:44:15;23.37;;;9.90;;
19163;SDS011;9714;51.208;4.242;2022-12-18T11:46:51;25.37;;;11.83;;
19163;SDS011;9714;51.208;4.242;2022-12-18T11:49:25;25.13;;;11.60;;
19163;SDS011;9714;51.208;4.242;2022-12-18T11:51:58;22.27;;;11.33;;
19163;SDS011;9714;51.208;4.242;2022-12-18T11:54:28;24.07;;;12.00;;
19163;SDS011;9714;51.208;4.242;2022-12-18T11:56:58;27.20;;;11.53;;
19163;SDS011;9714;51.208;4.242;2022-12-18T11:59:34;21.73;;;10.77;;
19163;SDS011;9714;51.208;4.242;2022-12-18T12:02:12;23.37;;;11.43;;
19163;SDS011;9714;51.208;4.242;2022-12-18T12:04:50;27.40;;;12.80;;
19163;SDS011;9714;51.208;4.242;2022-12-18T12:07:36;24.03;;;10.93;;
19163;SDS011;9714;51.208;4.242;2022-12-18T12:10:15;22.43;;;10.50;;
19163;SDS011;9714;51.208;4.242;2022-12-18T12:13:00;25.33;;;13.53;;
19163;SDS011;9714;51.208;4.242;2022-12-18T12:15:41;24.73;;;11.57;;
19163;SDS011;9714;51.208;4.242;2022-12-18T12:18:18;25.10;;;11.77;;
19163;SDS011;9714;51.208;4.242;2022-12-18T12:20:56;29.13;;;13.57;;
19163;SDS011;9714;51.208;4.242;2022-12-18T12:23:31;29.47;;;13.10;;
19163;SDS011;9714;51.208;4.242;2022-12-18T12:26:06;26.17;;;12.97;;
19163;SDS011;9714;51.208;4.242;2022-12-18T12:28:50;28.27;;;13.30;;
19163;SDS011;9714;51.208;4.242;2022-12-18T12:31:30;27.87;;;13.03;;
19163;SDS011;9714;51.208;4.242;2022-12-18T12:34:09;24.10;;;12.10;;
19163;SDS011;9714;51.208;4.242;2022-12-18T12:36:46;38.13;;;16.97;;
19163;SDS011;9714;51.208;4.242;2022-12-18T12:39:27;28.47;;;14.20;;
19163;SDS011;9714;51.208;4.242;2022-12-18T12:41:58;40.13;;;19.70;;
19163;SDS011;9714;51.208;4.242;2022-12-18T12:44:45;27.00;;;12.83;;
19163;SDS011;9714;51.208;4.242;2022-12-18T12:47:18;24.90;;;11.23;;
19163;SDS011;9714;51.208;4.242;2022-12-18T12:49:51;24.27;;;12.70;;
19163;SDS011;9714;51.208;4.242;2022-12-18T12:52:21;27.70;;;14.90;;
19163;SDS011;9714;51.208;4.242;2022-12-18T12:54:58;30.20;;;15.33;;
19163;SDS011;9714;51.208;4.242;2022-12-18T12:57:27;26.73;;;13.23;;
19163;SDS011;9714;51.208;4.242;2022-12-18T13:00:03;24.87;;;12.73;;
19163;SDS011;9714;51.208;4.242;2022-12-18T13:02:36;25.67;;;12.43;;
19163;SDS011;9714;51.208;4.242;2022-12-18T13:05:11;28.10;;;13.63;;
19163;SDS011;9714;51.208;4.242;2022-12-18T13:07:47;27.07;;;12.80;;
19163;SDS011;9714;51.208;4.242;2022-12-18T13:10:26;25.07;;;12.43;;
19163;SDS011;9714;51.208;4.242;2022-12-18T13:13:03;24.83;;;12.30;;
19163;SDS011;9714;51.208;4.242;2022-12-18T13:15:36;28.07;;;13.90;;
19163;SDS011;9714;51.208;4.242;2022-12-18T13:21:02;29.83;;;13.33;;
19163;SDS011;9714;51.208;4.242;2022-12-18T13:23:42;30.50;;;15.90;;
19163;SDS011;9714;51.208;4.242;2022-12-18T13:29:00;25.80;;;12.73;;
19163;SDS011;9714;51.208;4.242;2022-12-18T13:34:37;31.10;;;15.90;;
19163;SDS011;9714;51.208;4.242;2022-12-18T13:43:27;29.97;;;14.07;;
19163;SDS011;9714;51.208;4.242;2022-12-18T13:46:42;29.83;;;14.77;;
19163;SDS011;9714;51.208;4.242;2022-12-18T13:49:18;26.23;;;13.10;;
19163;SDS011;9714;51.208;4.242;2022-12-18T13:51:51;28.80;;;15.87;;
19163;SDS011;9714;51.208;4.242;2022-12-18T13:54:23;30.90;;;15.53;;
19163;SDS011;9714;51.208;4.242;2022-12-18T13:56:57;33.53;;;17.10;;
19163;SDS011;9714;51.208;4.242;2022-12-18T13:59:25;32.90;;;19.77;;
19163;SDS011;9714;51.208;4.242;2022-12-18T14:01:56;33.87;;;17.20;;
19163;SDS011;9714;51.208;4.242;2022-12-18T14:04:44;28.23;;;13.23;;
19163;SDS011;9714;51.208;4.242;2022-12-18T14:07:16;30.13;;;16.77;;
19163;SDS011;9714;51.208;4.242;2022-12-18T14:09:46;30.27;;;16.83;;
19163;SDS011;9714;51.208;4.242;2022-12-18T14:12:17;32.60;;;19.73;;
19163;SDS011;9714;51.208;4.242;2022-12-18T14:15:06;31.43;;;15.63;;
19163;SDS011;9714;51.208;4.242;2022-12-18T14:17:47;27.90;;;14.43;;
19163;SDS011;9714;51.208;4.242;2022-12-18T14:20:15;38.87;;;16.43;;
19163;SDS011;9714;51.208;4.242;2022-12-18T14:22:46;26.20;;;13.90;;
19163;SDS011;9714;51.208;4.242;2022-12-18T14:25:16;32.53;;;14.63;;
19163;SDS011;9714;51.208;4.242;2022-12-18T14:27:46;31.40;;;14.80;;
19163;SDS011;9714;51.208;4.242;2022-12-18T14:30:27;29.47;;;13.57;;
19163;SDS011;9714;51.208;4.242;2022-12-18T14:33:00;27.50;;;14.17;;
19163;SDS011;9714;51.208;4.242;2022-12-18T14:35:28;30.07;;;14.73;;
19163;SDS011;9714;51.208;4.242;2022-12-18T14:38:10;29.00;;;13.67;;
19163;SDS011;9714;51.208;4.242;2022-12-18T14:40:45;28.57;;;14.80;;
19163;SDS011;9714;51.208;4.242;2022-12-18T14:43:13;32.13;;;14.87;;
19163;SDS011;9714;51.208;4.242;2022-12-18T14:45:41;29.43;;;15.17;;
19163;SDS011;9714;51.208;4.242;2022-12-18T14:48:13;28.97;;;15.30;;
19163;SDS011;9714;51.208;4.242;2022-12-18T14:50:45;32.00;;;15.73;;
19163;SDS011;9714;51.208;4.242;2022-12-18T14:53:26;32.97;;;15.63;;
19163;SDS011;9714;51.208;4.242;2022-12-18T14:55:59;32.20;;;14.93;;
19163;SDS011;9714;51.208;4.242;2022-12-18T14:58:28;34.27;;;16.83;;
19163;SDS011;9714;51.208;4.242;2022-12-18T15:00:55;31.37;;;15.67;;
19163;SDS011;9714;51.208;4.242;2022-12-18T15:03:23;33.27;;;15.40;;
19163;SDS011;9714;51.208;4.242;2022-12-18T15:05:51;39.70;;;21.67;;
19163;SDS011;9714;51.208;4.242;2022-12-18T15:08:30;33.33;;;16.43;;
19163;SDS011;9714;51.208;4.242;2022-12-18T15:11:01;34.83;;;15.63;;
19163;SDS011;9714;51.208;4.242;2022-12-18T15:13:29;28.00;;;14.70;;
19163;SDS011;9714;51.208;4.242;2022-12-18T15:15:57;28.67;;;15.50;;
19163;SDS011;9714;51.208;4.242;2022-12-18T15:18:30;34.73;;;19.60;;
19163;SDS011;9714;51.208;4.242;2022-12-18T15:21:09;32.77;;;16.70;;
19163;SDS011;9714;51.208;4.242;2022-12-18T15:23:45;29.87;;;15.37;;
19163;SDS011;9714;51.208;4.242;2022-12-18T15:26:14;33.97;;;15.77;;
19163;SDS011;9714;51.208;4.242;2022-12-18T15:28:46;36.17;;;17.30;;
19163;SDS011;9714;51.208;4.242;2022-12-18T15:31:22;32.87;;;16.30;;